Time;durP1;ratioP1;P1;durP2;ratioP2;P2;SDS_P1;SDS_P2;PMS_P1;PMS_P2;Temp;Humidity;BMP_temperature;BMP_pressure;BME280_temperature;BME280_humidity;BME280_pressure;Samples;Min_cycle;Max_cycle;Signal;HPM_P1;HPM_P2
2021/04/22 00:01:52;;;;;;;;;;;9.20;99.90;;;;;;4952206;29;20020;-72
2021/04/22 00:04:18;;;;;;;;;;;9.20;99.90;;;;;;4952288;28;20057;-73
2021/04/22 00:06:44;;;;;;;;;;;9.30;99.90;;;;;;4951220;28;20017;-73
2021/04/22 00:09:10;;;;;;;;;;;9.20;99.90;;;;;;4952611;28;20017;-72
2021/04/22 00:11:36;;;;;;;;;;;9.30;99.90;;;;;;4953234;28;20041;-72
2021/04/22 00:14:05;;;;;;;;;;;9.30;99.90;;;;;;4952099;28;19965;-72
2021/04/22 00:16:31;;;;;;;;;;;9.30;99.90;;;;;;4952264;29;20309;-73
2021/04/22 00:18:57;;;;;;;;;;;9.30;99.90;;;;;;4952387;28;19965;-73
2021/04/22 00:21:22;;;;;;;;;;;9.30;99.90;;;;;;4966865;28;20020;-73
2021/04/22 00:23:48;;;;;;;;;;;9.30;99.90;;;;;;4950679;29;19937;-72
2021/04/22 00:26:14;;;;;;;;;;;9.30;99.90;;;;;;4952152;29;20032;-73
2021/04/22 00:28:40;;;;;;;;;;;9.30;99.90;;;;;;4952142;28;19978;-73
2021/04/22 00:31:06;;;;;;;;;;;9.30;99.90;;;;;;4951948;29;20028;-73
2021/04/22 00:33:32;;;;;;;;;;;9.30;99.90;;;;;;4951827;28;20484;-72
2021/04/22 00:35:58;;;;;;;;;;;9.30;99.90;;;;;;4951595;29;20025;-73
2021/04/22 00:38:24;;;;;;;;;;;9.30;99.90;;;;;;4966755;28;19926;-72
2021/04/22 00:40:50;;;;;;;;;;;9.30;99.90;;;;;;4951882;29;19937;-73
2021/04/22 00:43:17;;;;;;;;;;;9.30;99.90;;;;;;4951292;29;19933;-73
2021/04/22 00:45:43;;;;;;;;;;;9.30;99.90;;;;;;4951630;28;19929;-73
2021/04/22 00:48:10;;;;;;;;;;;9.40;99.90;;;;;;4952039;28;20017;-73
2021/04/22 00:50:37;;;;;;;;;;;9.50;99.90;;;;;;4950303;29;19933;-73
2021/04/22 00:53:04;;;;;;;;;;;9.40;99.90;;;;;;4950103;29;20010;-73
2021/04/22 00:55:30;;;;;;;;;;;9.50;99.90;;;;;;4950238;29;19926;-73
2021/04/22 00:57:57;;;;;;;;;;;9.50;99.90;;;;;;4951678;29;20375;-72
2021/04/22 01:00:24;;;;;;;;;;;9.50;99.90;;;;;;4951491;28;19926;-73
2021/04/22 01:02:50;;;;;;;;;;;9.50;99.90;;;;;;4951221;28;20121;-73
2021/04/22 01:05:17;;;;;;;;;;;9.50;99.90;;;;;;4951339;29;20381;-73
2021/04/22 01:07:44;;;;;;;;;;;9.40;99.90;;;;;;4951185;28;20012;-73
2021/04/22 01:10:11;;;;;;;;;;;9.40;99.90;;;;;;4951635;28;19985;-73
2021/04/22 01:12:37;;;;;;;;;;;9.50;99.90;;;;;;4951113;28;20074;-73
2021/04/22 01:15:07;;;;;;;;;;;9.50;99.90;;;;;;4965833;28;20017;-73
2021/04/22 01:17:34;;;;;;;;;;;9.50;99.90;;;;;;4949751;28;20049;-73
2021/04/22 01:20:00;;;;;;;;;;;9.40;99.90;;;;;;4950939;28;20021;-72
2021/04/22 01:22:26;;;;;;;;;;;9.40;99.90;;;;;;4950815;29;20073;-73
2021/04/22 01:24:51;;;;;;;;;;;9.40;99.90;;;;;;4949923;29;20013;-72
2021/04/22 01:27:18;;;;;;;;;;;9.40;99.90;;;;;;4951323;29;19922;-73
2021/04/22 01:29:43;;;;;;;;;;;9.40;99.90;;;;;;4950790;29;20030;-73
2021/04/22 01:32:09;;;;;;;;;;;9.30;99.90;;;;;;4950801;28;19933;-73
2021/04/22 01:34:35;;;;;;;;;;;9.40;99.90;;;;;;4963313;28;20375;-73
2021/04/22 01:37:01;;;;;;;;;;;9.50;99.90;;;;;;4950711;29;20400;-73
2021/04/22 01:39:27;;;;;;;;;;;9.50;99.90;;;;;;4945753;28;20040;-73
2021/04/22 01:41:53;;;;;;;;;;;9.50;99.90;;;;;;4950839;29;20018;-73
2021/04/22 01:44:19;;;;;;;;;;;9.40;99.90;;;;;;4950461;29;19961;-73
2021/04/22 01:46:45;;;;;;;;;;;9.40;99.90;;;;;;4950683;29;19957;-73
2021/04/22 01:49:11;;;;;;;;;;;9.40;99.90;;;;;;4950721;28;20466;-74
2021/04/22 01:51:37;;;;;;;;;;;9.30;99.90;;;;;;4950461;28;19997;-73
2021/04/22 01:54:02;;;;;;;;;;;9.20;99.90;;;;;;4949002;28;20021;-73
2021/04/22 01:56:28;;;;;;;;;;;9.20;99.90;;;;;;4944544;28;20001;-73
2021/04/22 01:58:54;;;;;;;;;;;9.20;99.90;;;;;;4949958;28;20058;-73
2021/04/22 02:01:21;;;;;;;;;;;9.20;99.90;;;;;;4950613;29;20054;-72
2021/04/22 02:03:46;;;;;;;;;;;9.20;99.90;;;;;;4950168;28;19930;-73
2021/04/22 02:06:12;;;;;;;;;;;9.20;99.90;;;;;;4950237;29;19930;-74
2021/04/22 02:08:38;;;;;;;;;;;9.20;99.90;;;;;;4950437;28;20287;-74
2021/04/22 02:11:05;;;;;;;;;;;9.20;99.90;;;;;;4951562;28;20390;-73
2021/04/22 02:13:31;;;;;;;;;;;9.10;99.90;;;;;;4950073;28;19933;-73
2021/04/22 02:15:57;;;;;;;;;;;9.00;99.90;;;;;;4950340;28;20021;-72
2021/04/22 02:18:23;;;;;;;;;;;9.00;99.90;;;;;;4949994;28;20036;-73
2021/04/22 02:20:49;;;;;;;;;;;9.10;99.90;;;;;;4950537;29;20283;-74
2021/04/22 02:23:17;;;;;;;;;;;9.10;99.90;;;;;;4948666;29;20283;-74
2021/04/22 02:25:43;;;;;;;;;;;9.10;99.90;;;;;;4964459;28;19997;-73
2021/04/22 02:28:10;;;;;;;;;;;9.00;99.90;;;;;;4950078;29;19969;-73
2021/04/22 02:30:38;;;;;;;;;;;9.00;99.90;;;;;;4951529;28;20028;-73
2021/04/22 02:33:05;;;;;;;;;;;8.90;99.90;;;;;;4953623;28;20372;-73
2021/04/22 02:35:33;;;;;;;;;;;8.90;99.90;;;;;;4952856;29;19927;-73
2021/04/22 02:37:59;;;;;;;;;;;8.90;99.90;;;;;;4968667;28;20288;-74
2021/04/22 02:40:27;;;;;;;;;;;8.90;99.90;;;;;;4969033;28;20271;-73
2021/04/22 02:42:55;;;;;;;;;;;8.90;99.90;;;;;;4952854;28;19933;-73
2021/04/22 02:45:25;;;;;;;;;;;8.90;99.90;;;;;;4952677;29;20009;-74
2021/04/22 02:47:51;;;;;;;;;;;8.90;99.90;;;;;;4952652;29;19977;-73
2021/04/22 02:50:19;;;;;;;;;;;8.90;99.90;;;;;;4954056;29;19966;-73
2021/04/22 02:52:45;;;;;;;;;;;8.80;99.90;;;;;;4953875;28;19933;-74
2021/04/22 02:55:12;;;;;;;;;;;8.70;99.90;;;;;;4953361;29;19926;-73
2021/04/22 02:57:38;;;;;;;;;;;8.70;99.90;;;;;;4953796;28;19964;-73
2021/04/22 03:00:08;;;;;;;;;;;8.70;99.90;;;;;;4953778;28;20022;-74
2021/04/22 03:02:34;;;;;;;;;;;8.70;99.90;;;;;;4953651;28;19930;-74
2021/04/22 03:05:00;;;;;;;;;;;8.70;99.90;;;;;;4953392;28;20372;-74
2021/04/22 03:07:26;;;;;;;;;;;8.70;99.90;;;;;;4953637;29;20055;-73
2021/04/22 03:09:52;;;;;;;;;;;8.70;99.90;;;;;;4954291;28;20421;-73
2021/04/22 03:12:17;;;;;;;;;;;8.70;99.90;;;;;;4953413;28;20016;-73
2021/04/22 03:14:43;;;;;;;;;;;8.70;99.90;;;;;;4953080;29;20306;-74
2021/04/22 03:17:09;;;;;;;;;;;8.70;99.90;;;;;;4953297;29;19937;-74
2021/04/22 03:19:35;;;;;;;;;;;8.70;99.90;;;;;;4953505;29;20306;-74
2021/04/22 03:22:01;;;;;;;;;;;8.70;99.90;;;;;;4951872;28;19930;-74
2021/04/22 03:24:27;;;;;;;;;;;8.70;99.90;;;;;;4967881;28;19945;-74
2021/04/22 03:26:53;;;;;;;;;;;8.70;99.90;;;;;;4953190;28;20011;-73
2021/04/22 03:29:19;;;;;;;;;;;8.70;99.90;;;;;;4953495;29;19930;-74
2021/04/22 03:31:45;;;;;;;;;;;8.60;99.90;;;;;;4952959;28;19970;-74
2021/04/22 03:34:11;;;;;;;;;;;8.70;99.90;;;;;;4953158;28;20413;-74
2021/04/22 03:36:36;;;;;;;;;;;8.70;99.90;;;;;;4953046;28;20343;-74
2021/04/22 03:39:03;;;;;;;;;;;8.70;99.90;;;;;;4952739;28;19934;-74
2021/04/22 03:41:29;;;;;;;;;;;8.70;99.90;;;;;;4951453;28;19926;-74
2021/04/22 03:43:55;;;;;;;;;;;8.70;99.90;;;;;;4952928;29;20287;-73
2021/04/22 03:46:21;;;;;;;;;;;8.80;99.90;;;;;;4967590;28;20029;-74
2021/04/22 03:48:47;;;;;;;;;;;8.70;99.90;;;;;;4967456;28;20318;-74
2021/04/22 03:51:13;;;;;;;;;;;8.70;99.90;;;;;;4952762;28;20362;-74
2021/04/22 03:53:39;;;;;;;;;;;8.70;99.90;;;;;;4952388;28;20026;-74
2021/04/22 03:56:05;;;;;;;;;;;8.70;99.90;;;;;;4952168;29;20024;-74
2021/04/22 03:58:32;;;;;;;;;;;8.80;99.90;;;;;;4952577;28;20041;-74
2021/04/22 04:00:58;;;;;;;;;;;8.80;99.90;;;;;;4952807;28;19945;-74
2021/04/22 04:03:23;;;;;;;;;;;8.90;99.90;;;;;;4952457;29;20402;-74
2021/04/22 04:05:49;;;;;;;;;;;8.90;99.90;;;;;;4952249;28;19927;-74
2021/04/22 04:08:16;;;;;;;;;;;8.90;99.90;;;;;;4967567;28;19932;-74
2021/04/22 04:10:42;;;;;;;;;;;8.90;99.90;;;;;;4952723;28;19923;-74
2021/04/22 04:13:08;;;;;;;;;;;8.90;99.90;;;;;;4952913;28;19922;-73
2021/04/22 04:15:33;;;;;;;;;;;8.90;99.90;;;;;;4940214;29;20387;-74
2021/04/22 04:18:00;;;;;;;;;;;8.90;99.90;;;;;;4952360;29;19977;-74
2021/04/22 04:20:26;;;;;;;;;;;9.00;99.90;;;;;;4952457;28;19926;-74
2021/04/22 04:22:52;;;;;;;;;;;9.00;99.90;;;;;;4966853;28;19926;-74
2021/04/22 04:25:18;;;;;;;;;;;9.00;99.90;;;;;;4966724;28;20020;-74
2021/04/22 04:27:44;;;;;;;;;;;9.00;99.90;;;;;;4951807;28;19961;-75
2021/04/22 04:30:10;;;;;;;;;;;9.10;99.90;;;;;;4952331;29;19994;-74
2021/04/22 04:32:37;;;;;;;;;;;9.20;99.90;;;;;;4951434;28;20001;-74
2021/04/22 04:35:04;;;;;;;;;;;9.20;99.90;;;;;;4951720;28;19965;-75
2021/04/22 04:37:30;;;;;;;;;;;9.30;99.90;;;;;;4951896;28;20009;-74
2021/04/22 04:39:55;;;;;;;;;;;9.40;99.90;;;;;;4952137;29;20053;-74
2021/04/22 04:42:21;;;;;;;;;;;9.40;99.90;;;;;;4950086;29;19922;-74
2021/04/22 04:44:47;;;;;;;;;;;9.50;99.90;;;;;;4940343;29;20020;-74
2021/04/22 04:47:13;;;;;;;;;;;9.60;99.90;;;;;;4951954;28;19969;-74
2021/04/22 04:49:39;;;;;;;;;;;9.60;99.90;;;;;;4951739;29;19984;-74
2021/04/22 04:52:05;;;;;;;;;;;9.70;99.90;;;;;;4951455;28;20506;-74
2021/04/22 04:54:31;;;;;;;;;;;9.70;99.90;;;;;;4949520;29;20020;-75
2021/04/22 04:56:58;;;;;;;;;;;9.70;99.90;;;;;;4951167;28;19930;-75
2021/04/22 04:59:23;;;;;;;;;;;9.70;99.90;;;;;;4950347;29;19933;-76
2021/04/22 05:01:49;;;;;;;;;;;9.60;99.90;;;;;;4951467;28;19926;-76
2021/04/22 05:04:15;;;;;;;;;;;9.60;99.90;;;;;;4951434;28;20016;-76
2021/04/22 05:06:41;;;;;;;;;;;9.60;99.90;;;;;;4951130;29;19949;-75
2021/04/22 05:09:07;;;;;;;;;;;9.50;99.90;;;;;;4938596;29;20109;-63
2021/04/22 05:11:33;;;;;;;;;;;9.50;99.90;;;;;;4970436;28;20095;-63
2021/04/22 05:13:59;;;;;;;;;;;9.50;99.90;;;;;;4963705;28;20020;-66
2021/04/22 05:16:25;;;;;;;;;;;9.60;99.90;;;;;;4971036;28;19969;-63
2021/04/22 05:18:51;;;;;;;;;;;9.60;99.90;;;;;;4957667;28;19969;-64
2021/04/22 05:21:17;;;;;;;;;;;9.70;99.90;;;;;;4956704;28;20425;-63
2021/04/22 05:23:43;;;;;;;;;;;9.70;99.90;;;;;;4951140;29;20025;-66
2021/04/22 05:26:09;;;;;;;;;;;9.70;99.90;;;;;;4965445;28;19930;-65
2021/04/22 05:28:37;;;;;;;;;;;9.70;99.90;;;;;;4959015;28;19926;-65
2021/04/22 05:31:03;;;;;;;;;;;9.70;99.90;;;;;;4948085;29;19927;-62
2021/04/22 05:33:29;;;;;;;;;;;9.80;99.90;;;;;;4951144;28;20130;-63
2021/04/22 05:35:55;;;;;;;;;;;9.80;99.90;;;;;;4950525;29;20004;-63
2021/04/22 05:38:21;;;;;;;;;;;9.80;99.90;;;;;;4949658;29;20042;-64
2021/04/22 05:40:47;;;;;;;;;;;9.70;99.90;;;;;;4944852;28;19969;-68
2021/04/22 05:43:13;;;;;;;;;;;9.60;99.90;;;;;;4948950;29;19969;-68
2021/04/22 05:45:39;;;;;;;;;;;9.60;99.90;;;;;;4950925;28;19930;-72
2021/04/22 05:48:05;;;;;;;;;;;9.50;99.90;;;;;;4949964;28;20013;-72
2021/04/22 05:50:31;;;;;;;;;;;9.80;99.90;;;;;;4950210;28;19969;-71
2021/04/22 05:52:57;;;;;;;;;;;10.10;99.90;;;;;;4950029;29;19957;-70
2021/04/22 05:55:23;;;;;;;;;;;10.50;99.90;;;;;;4950150;28;19926;-68
2021/04/22 05:57:50;;;;;;;;;;;11.00;99.90;;;;;;4964947;28;20064;-69
2021/04/22 06:00:18;;;;;;;;;;;11.30;99.90;;;;;;4950560;28;20021;-69
2021/04/22 06:02:44;;;;;;;;;;;11.50;99.90;;;;;;4949236;29;19930;-69
2021/04/22 06:05:10;;;;;;;;;;;11.50;99.90;;;;;;4950721;28;19965;-69
2021/04/22 06:07:36;;;;;;;;;;;11.40;99.90;;;;;;4949927;28;19989;-70
2021/04/22 06:10:04;;;;;;;;;;;11.30;99.90;;;;;;4950795;28;20362;-70
2021/04/22 06:12:30;;;;;;;;;;;11.20;99.90;;;;;;4950253;28;19927;-70
2021/04/22 06:14:56;;;;;;;;;;;11.10;99.90;;;;;;4950293;28;20346;-70
2021/04/22 06:17:22;;;;;;;;;;;11.20;99.90;;;;;;4949233;29;20728;-70
2021/04/22 06:19:48;;;;;;;;;;;11.30;99.90;;;;;;4951359;28;20020;-70
2021/04/22 06:22:14;;;;;;;;;;;11.40;99.90;;;;;;4950041;29;20394;-70
2021/04/22 06:24:40;;;;;;;;;;;11.50;99.90;;;;;;4950018;28;20378;-70
2021/04/22 06:27:06;;;;;;;;;;;11.60;99.90;;;;;;4949812;29;20057;-69
2021/04/22 06:29:32;;;;;;;;;;;11.50;99.90;;;;;;4948274;28;20426;-69
2021/04/22 06:31:58;;;;;;;;;;;11.60;99.90;;;;;;4964984;28;20060;-69
2021/04/22 06:34:24;;;;;;;;;;;11.70;99.90;;;;;;4961221;28;19949;-71
2021/04/22 06:36:50;;;;;;;;;;;11.90;99.90;;;;;;4949243;29;19972;-76
2021/04/22 06:39:16;;;;;;;;;;;12.10;99.90;;;;;;4964121;28;20029;-77
2021/04/22 06:41:42;;;;;;;;;;;12.40;99.90;;;;;;4964789;28;19926;-81
2021/04/22 06:44:08;;;;;;;;;;;12.50;99.90;;;;;;4965214;28;20013;-82
2021/04/22 06:46:35;;;;;;;;;;;12.50;99.90;;;;;;4964319;28;20004;-82
2021/04/22 06:49:01;;;;;;;;;;;12.60;99.90;;;;;;4964713;28;19934;-70
2021/04/22 06:51:27;;;;;;;;;;;12.80;99.90;;;;;;4963377;28;20362;-76
2021/04/22 06:53:53;;;;;;;;;;;13.00;99.90;;;;;;4964047;28;19966;-75
2021/04/22 06:56:19;;;;;;;;;;;13.30;99.90;;;;;;4949911;28;19926;-75
2021/04/22 06:58:45;;;;;;;;;;;13.30;99.90;;;;;;4963597;28;20004;-76
2021/04/22 07:01:11;;;;;;;;;;;13.20;99.30;;;;;;4963932;28;20070;-75
2021/04/22 07:03:37;;;;;;;;;;;13.20;99.90;;;;;;4945797;29;19950;-75
2021/04/22 07:06:02;;;;;;;;;;;13.10;99.50;;;;;;4962703;28;20393;-75
2021/04/22 07:08:28;;;;;;;;;;;13.10;99.30;;;;;;4947366;29;20295;-75
2021/04/22 07:10:54;;;;;;;;;;;13.40;99.40;;;;;;4949458;28;19950;-76
2021/04/22 07:13:20;;;;;;;;;;;13.70;98.70;;;;;;4963412;28;20549;-75
2021/04/22 07:15:46;;;;;;;;;;;13.90;97.50;;;;;;4946118;28;19976;-68
2021/04/22 07:18:12;;;;;;;;;;;14.10;96.40;;;;;;4951592;28;19977;-76
2021/04/22 07:20:38;;;;;;;;;;;14.20;96.60;;;;;;4952120;28;20477;-79
2021/04/22 07:23:04;;;;;;;;;;;14.40;97.10;;;;;;4950745;28;20017;-79
2021/04/22 07:25:32;;;;;;;;;;;14.60;95.70;;;;;;4950778;28;20020;-78
2021/04/22 07:27:59;;;;;;;;;;;14.70;92.50;;;;;;4966994;28;19932;-79
2021/04/22 07:30:25;;;;;;;;;;;14.80;94.00;;;;;;4950725;29;19955;-79
2021/04/22 07:32:51;;;;;;;;;;;14.80;93.70;;;;;;4933334;28;20016;-70
2021/04/22 07:35:19;;;;;;;;;;;14.80;93.70;;;;;;4951864;28;20029;-70
2021/04/22 07:37:45;;;;;;;;;;;14.60;93.00;;;;;;4951304;28;20018;-71
2021/04/22 07:40:14;;;;;;;;;;;14.50;91.80;;;;;;4951947;28;19930;-71
2021/04/22 07:42:40;;;;;;;;;;;14.20;91.40;;;;;;4951665;28;20022;-71
2021/04/22 07:45:06;;;;;;;;;;;14.00;90.90;;;;;;4950463;29;20021;-71
2021/04/22 07:47:32;;;;;;;;;;;13.80;92.80;;;;;;4949818;29;20037;-70
2021/04/22 07:49:58;;;;;;;;;;;13.60;92.90;;;;;;4966340;28;20021;-71
2021/04/22 07:52:25;;;;;;;;;;;13.40;92.70;;;;;;4966348;28;20033;-70
2021/04/22 07:54:51;;;;;;;;;;;13.30;91.20;;;;;;4966108;28;20441;-70
2021/04/22 07:57:17;;;;;;;;;;;13.20;92.70;;;;;;4938020;29;19926;-71
2021/04/22 07:59:42;;;;;;;;;;;13.20;92.30;;;;;;4949948;29;20397;-71
2021/04/22 08:02:09;;;;;;;;;;;13.30;94.20;;;;;;4966155;28;19922;-72
2021/04/22 08:04:35;;;;;;;;;;;13.30;90.30;;;;;;4927973;28;677079;-71
2021/04/22 08:07:01;;;;;;;;;;;13.30;92.30;;;;;;4966932;28;20429;-73
2021/04/22 08:09:27;;;;;;;;;;;13.30;90.60;;;;;;4952161;28;20398;-73
2021/04/22 08:11:53;;;;;;;;;;;13.30;91.40;;;;;;4967645;28;19929;-74
2021/04/22 08:14:19;;;;;;;;;;;13.20;93.30;;;;;;4967367;28;20700;-75
2021/04/22 08:16:45;;;;;;;;;;;13.10;93.20;;;;;;4951633;28;19927;-80
2021/04/22 08:19:11;;;;;;;;;;;12.90;90.40;;;;;;4967351;28;20013;-80
2021/04/22 08:21:37;;;;;;;;;;;12.90;92.30;;;;;;4950765;29;19965;-80
2021/04/22 08:24:03;;;;;;;;;;;12.80;91.80;;;;;;4951798;29;20014;-79
2021/04/22 08:26:30;;;;;;;;;;;12.70;90.90;;;;;;4950922;28;19930;-79
2021/04/22 08:28:57;;;;;;;;;;;12.50;90.50;;;;;;4965522;28;19934;-78
2021/04/22 08:31:24;;;;;;;;;;;12.30;91.30;;;;;;4950074;28;20061;-79
2021/04/22 08:33:52;;;;;;;;;;;12.20;91.80;;;;;;4956195;28;19962;-77
2021/04/22 08:36:19;;;;;;;;;;;12.00;91.90;;;;;;4951562;29;20371;-74
2021/04/22 08:38:45;;;;;;;;;;;11.90;91.00;;;;;;4951751;28;19926;-70
2021/04/22 08:41:11;;;;;;;;;;;11.70;90.90;;;;;;4966401;28;20733;-70
2021/04/22 08:43:37;;;;;;;;;;;11.60;90.60;;;;;;4951756;28;20016;-74
2021/04/22 08:46:04;;;;;;;;;;;11.50;91.50;;;;;;4951367;28;20009;-75
2021/04/22 08:48:30;;;;;;;;;;;11.50;91.50;;;;;;4950945;29;19926;-77
2021/04/22 08:50:56;;;;;;;;;;;11.30;90.50;;;;;;4949835;29;19937;-71
2021/04/22 08:53:25;;;;;;;;;;;11.10;90.80;;;;;;4950529;28;20362;-80
2021/04/22 08:55:53;;;;;;;;;;;11.00;93.30;;;;;;4966187;28;19966;-76
2021/04/22 08:58:19;;;;;;;;;;;10.90;93.20;;;;;;4951705;28;19933;-78
2021/04/22 09:00:50;;;;;;;;;;;10.70;92.40;;;;;;4949919;28;20013;-77
2021/04/22 09:03:17;;;;;;;;;;;10.50;93.10;;;;;;4965949;28;19926;-78
2021/04/22 09:05:43;;;;;;;;;;;10.40;93.10;;;;;;4951145;28;20458;-75
2021/04/22 09:08:09;;;;;;;;;;;10.20;93.00;;;;;;4951323;28;20041;-75
2021/04/22 09:10:35;;;;;;;;;;;10.00;92.70;;;;;;4952525;28;20001;-75
2021/04/22 09:13:10;;;;;;;;;;;9.90;91.90;;;;;;4965745;28;19926;-74
2021/04/22 09:15:37;;;;;;;;;;;10.00;91.10;;;;;;4934037;29;20041;-79
2021/04/22 09:18:04;;;;;;;;;;;10.30;90.60;;;;;;4965584;28;19941;-79
2021/04/22 09:20:35;;;;;;;;;;;10.50;90.80;;;;;;4949909;29;20029;-79
2021/04/22 09:23:12;;;;;;;;;;;10.50;91.60;;;;;;4949680;28;19975;-78
2021/04/22 09:25:38;;;;;;;;;;;10.40;93.00;;;;;;4954914;28;20021;-78
2021/04/22 09:28:05;;;;;;;;;;;10.30;95.30;;;;;;4949449;28;20025;-79
2021/04/22 09:30:33;;;;;;;;;;;10.20;95.40;;;;;;4967651;28;20828;-85
2021/04/22 09:32:59;;;;;;;;;;;10.00;93.70;;;;;;4951581;28;20280;-83
2021/04/22 09:35:25;;;;;;;;;;;9.70;94.80;;;;;;4952302;29;19973;-83
2021/04/22 09:37:52;;;;;;;;;;;9.30;94.90;;;;;;4950733;28;19981;-81
2021/04/22 09:40:18;;;;;;;;;;;9.10;95.80;;;;;;4965850;28;19934;-79
2021/04/22 09:42:44;;;;;;;;;;;8.90;97.50;;;;;;4949698;29;19926;-78
2021/04/22 09:45:11;;;;;;;;;;;8.60;98.80;;;;;;4950017;28;19922;-77
2021/04/22 09:47:37;;;;;;;;;;;8.50;99.90;;;;;;4949191;29;20050;-79
2021/04/22 09:50:07;;;;;;;;;;;8.20;99.90;;;;;;4965553;28;20402;-79
2021/04/22 09:52:35;;;;;;;;;;;7.90;99.90;;;;;;4965267;28;19974;-76
2021/04/22 09:55:01;;;;;;;;;;;7.70;99.90;;;;;;4965319;28;19930;-76
2021/04/22 09:57:28;;;;;;;;;;;7.50;99.90;;;;;;4964939;28;20450;-78
2021/04/22 09:59:55;;;;;;;;;;;7.40;99.90;;;;;;4965744;28;19961;-78
2021/04/22 10:02:22;;;;;;;;;;;7.40;99.90;;;;;;4932686;29;20018;-76
2021/04/22 10:04:48;;;;;;;;;;;7.50;99.90;;;;;;4964977;28;19922;-73
2021/04/22 10:07:17;;;;;;;;;;;7.40;99.90;;;;;;4964690;28;20025;-74
2021/04/22 10:09:43;;;;;;;;;;;7.40;99.90;;;;;;4949039;28;19926;-73
2021/04/22 10:12:18;;;;;;;;;;;7.40;99.90;;;;;;4951458;28;19933;-75
2021/04/22 10:14:44;;;;;;;;;;;7.40;99.90;;;;;;4965193;28;20453;-73
2021/04/22 10:17:14;;;;;;;;;;;7.60;99.90;;;;;;4949392;28;19929;-78
2021/04/22 10:19:40;;;;;;;;;;;7.70;99.90;;;;;;4965298;28;20342;-80
2021/04/22 10:22:06;;;;;;;;;;;7.80;99.90;;;;;;4951056;28;19933;-81
2021/04/22 10:24:33;;;;;;;;;;;7.90;99.90;;;;;;4946359;28;19926;-79
2021/04/22 10:27:00;;;;;;;;;;;8.00;99.90;;;;;;4948993;28;19976;-77
2021/04/22 10:29:26;;;;;;;;;;;8.20;99.90;;;;;;4965728;28;19933;-79
2021/04/22 10:31:54;;;;;;;;;;;8.30;99.90;;;;;;4964692;28;20081;-69
2021/04/22 10:34:19;;;;;;;;;;;8.50;99.90;;;;;;4938694;28;20318;-69
2021/04/22 10:36:46;;;;;;;;;;;8.60;99.90;;;;;;4964800;28;20030;-78
2021/04/22 10:39:12;;;;;;;;;;;8.80;99.90;;;;;;4941541;29;20038;-76
2021/04/22 10:41:39;;;;;;;;;;;8.90;99.90;;;;;;4965083;28;19957;-78
2021/04/22 10:44:05;;;;;;;;;;;8.90;99.90;;;;;;4959694;28;20395;-80
2021/04/22 10:46:41;;;;;;;;;;;9.00;99.90;;;;;;4948252;28;19953;-71
2021/04/22 10:49:07;;;;;;;;;;;9.10;99.90;;;;;;4940314;29;20028;-72
2021/04/22 10:51:35;;;;;;;;;;;9.40;99.90;;;;;;4966066;28;19969;-73
2021/04/22 10:54:01;;;;;;;;;;;9.80;99.90;;;;;;4935022;29;19937;-71
2021/04/22 10:56:28;;;;;;;;;;;10.20;96.70;;;;;;4935668;28;20399;-77
2021/04/22 10:58:54;;;;;;;;;;;10.50;99.50;;;;;;4965762;28;19927;-73
2021/04/22 11:01:29;;;;;;;;;;;10.80;95.80;;;;;;4961918;28;20017;-75
2021/04/22 11:04:02;;;;;;;;;;;11.10;95.30;;;;;;4965683;28;19972;-75
2021/04/22 11:06:31;;;;;;;;;;;11.40;93.00;;;;;;4965425;28;20114;-75
2021/04/22 11:08:57;;;;;;;;;;;11.60;85.50;;;;;;4971892;28;19926;-76
2021/04/22 11:11:28;;;;;;;;;;;11.70;82.20;;;;;;4952020;28;20400;-74
2021/04/22 11:14:03;;;;;;;;;;;11.90;91.20;;;;;;4965115;28;20029;-75
2021/04/22 11:16:31;;;;;;;;;;;12.70;88.90;;;;;;4967241;28;20033;-72
2021/04/22 11:18:57;;;;;;;;;;;13.60;85.90;;;;;;4964321;28;19926;-73
2021/04/22 11:21:24;;;;;;;;;;;14.20;80.50;;;;;;4952745;28;20315;-73
2021/04/22 11:23:51;;;;;;;;;;;14.60;76.00;;;;;;4943025;28;19969;-74
2021/04/22 11:26:19;;;;;;;;;;;15.00;67.30;;;;;;4967413;28;20462;-74
2021/04/22 11:28:45;;;;;;;;;;;15.10;64.30;;;;;;4966216;28;19926;-71
2021/04/22 11:31:16;;;;;;;;;;;15.00;64.30;;;;;;4950630;28;20183;-71
2021/04/22 11:33:43;;;;;;;;;;;15.00;65.20;;;;;;4966054;28;19923;-71
2021/04/22 11:36:19;;;;;;;;;;;15.20;68.30;;;;;;4950963;28;20030;-72
2021/04/22 11:38:52;;;;;;;;;;;15.30;65.40;;;;;;4951369;28;19927;-74
2021/04/22 11:41:18;;;;;;;;;;;15.30;64.80;;;;;;4950941;28;20446;-76
2021/04/22 11:43:44;;;;;;;;;;;15.20;59.70;;;;;;4951540;28;19965;-76
2021/04/22 11:46:10;;;;;;;;;;;15.10;64.50;;;;;;4950872;28;20005;-75
2021/04/22 11:48:37;;;;;;;;;;;15.20;60.70;;;;;;4967461;28;20025;-76
2021/04/22 11:51:04;;;;;;;;;;;15.30;59.60;;;;;;4952708;28;20013;-75
2021/04/22 11:53:38;;;;;;;;;;;15.40;62.20;;;;;;4952999;28;20394;-74
2021/04/22 11:56:06;;;;;;;;;;;15.70;63.30;;;;;;4966824;28;20065;-73
2021/04/22 11:58:34;;;;;;;;;;;15.80;62.30;;;;;;4952230;28;20391;-75
2021/04/22 12:01:10;;;;;;;;;;;16.00;61.10;;;;;;4952163;28;19962;-75
2021/04/22 12:03:36;;;;;;;;;;;16.20;63.10;;;;;;4950726;28;19945;-75
2021/04/22 12:06:07;;;;;;;;;;;16.40;62.10;;;;;;4966867;28;20339;-75
2021/04/22 12:08:33;;;;;;;;;;;16.40;59.60;;;;;;4950605;28;19926;-75
2021/04/22 12:10:59;;;;;;;;;;;16.20;57.50;;;;;;4953626;28;19937;-70
2021/04/22 12:13:27;;;;;;;;;;;16.10;59.60;;;;;;4949834;28;19923;-70
2021/04/22 12:15:55;;;;;;;;;;;16.00;58.60;;;;;;4941366;28;20013;-71
2021/04/22 12:18:21;;;;;;;;;;;15.70;57.60;;;;;;4965011;28;20302;-71
2021/04/22 12:20:48;;;;;;;;;;;15.40;58.40;;;;;;4951866;28;20017;-70
2021/04/22 12:23:14;;;;;;;;;;;15.30;59.70;;;;;;4951897;28;19926;-70
2021/04/22 12:25:41;;;;;;;;;;;15.10;61.00;;;;;;4963957;28;20025;-70
2021/04/22 12:28:08;;;;;;;;;;;14.90;60.70;;;;;;4966390;28;20462;-70
2021/04/22 12:30:34;;;;;;;;;;;14.70;61.50;;;;;;4951838;28;20125;-70
2021/04/22 12:33:05;;;;;;;;;;;14.50;60.70;;;;;;4964197;28;21392;-70
2021/04/22 12:35:31;;;;;;;;;;;14.30;62.80;;;;;;4966614;28;19923;-70
2021/04/22 12:38:09;;;;;;;;;;;14.00;60.70;;;;;;4951694;29;19978;-70
2021/04/22 12:40:35;;;;;;;;;;;13.90;63.50;;;;;;4951634;28;19923;-70
2021/04/22 12:43:01;;;;;;;;;;;13.80;62.00;;;;;;4951596;28;19937;-70
2021/04/22 12:45:28;;;;;;;;;;;13.70;61.10;;;;;;4966222;28;20017;-70
2021/04/22 12:47:53;;;;;;;;;;;13.90;59.90;;;;;;4949888;28;19928;-70
2021/04/22 12:50:22;;;;;;;;;;;13.90;59.40;;;;;;4966467;28;19969;-69
2021/04/22 12:52:49;;;;;;;;;;;13.90;59.60;;;;;;4951247;28;19933;-70
2021/04/22 12:55:18;;;;;;;;;;;13.90;58.60;;;;;;4955848;28;19926;-71
2021/04/22 12:57:51;;;;;;;;;;;14.00;59.70;;;;;;4951102;28;19977;-70
2021/04/22 13:00:25;;;;;;;;;;;14.00;58.10;;;;;;4950459;28;19926;-72
2021/04/22 13:02:51;;;;;;;;;;;14.00;59.00;;;;;;4949592;28;19930;-69
2021/04/22 13:05:17;;;;;;;;;;;14.10;58.20;;;;;;4951664;28;20417;-70
2021/04/22 13:07:43;;;;;;;;;;;14.30;55.90;;;;;;4966035;28;20469;-68
2021/04/22 13:10:13;;;;;;;;;;;14.40;55.20;;;;;;4954011;28;20033;-68
2021/04/22 13:12:40;;;;;;;;;;;14.60;53.30;;;;;;4952038;28;20741;-68
2021/04/22 13:15:08;;;;;;;;;;;14.80;53.70;;;;;;4950635;28;19932;-68
2021/04/22 13:17:35;;;;;;;;;;;14.90;52.80;;;;;;4960022;28;20025;-68
2021/04/22 13:20:02;;;;;;;;;;;15.10;52.30;;;;;;4949986;28;19934;-70
2021/04/22 13:22:28;;;;;;;;;;;15.30;52.50;;;;;;4951018;28;20041;-70
2021/04/22 13:24:54;;;;;;;;;;;15.40;50.80;;;;;;4944238;28;20368;-70
2021/04/22 13:27:24;;;;;;;;;;;15.70;50.30;;;;;;4965831;28;19985;-70
2021/04/22 13:29:52;;;;;;;;;;;15.80;50.20;;;;;;4950216;28;19934;-71
2021/04/22 13:32:19;;;;;;;;;;;16.00;51.50;;;;;;4950973;28;20344;-73
2021/04/22 13:34:47;;;;;;;;;;;16.20;49.00;;;;;;4950817;28;19926;-73
2021/04/22 13:37:13;;;;;;;;;;;16.20;50.40;;;;;;4950771;29;20068;-73
2021/04/22 13:39:40;;;;;;;;;;;16.10;50.80;;;;;;4965717;28;19930;-73
2021/04/22 13:42:07;;;;;;;;;;;16.10;48.80;;;;;;4950827;28;20009;-73
2021/04/22 13:44:35;;;;;;;;;;;16.00;48.80;;;;;;4950771;28;19926;-74
2021/04/22 13:47:02;;;;;;;;;;;15.80;49.20;;;;;;4950732;28;20049;-74
2021/04/22 13:49:31;;;;;;;;;;;15.50;50.00;;;;;;4950516;28;19926;-72
2021/04/22 13:52:06;;;;;;;;;;;15.40;49.20;;;;;;4964732;28;19930;-73
2021/04/22 13:54:33;;;;;;;;;;;15.40;49.00;;;;;;4952322;28;19933;-74
2021/04/22 13:57:08;;;;;;;;;;;15.50;48.10;;;;;;4950290;28;20395;-74
2021/04/22 13:59:34;;;;;;;;;;;15.40;47.60;;;;;;4939715;29;20020;-74
2021/04/22 14:02:01;;;;;;;;;;;15.40;47.50;;;;;;4965070;28;20042;-73
2021/04/22 14:04:27;;;;;;;;;;;15.40;46.40;;;;;;4950208;28;19936;-73
2021/04/22 14:06:53;;;;;;;;;;;15.30;47.50;;;;;;4964861;28;20032;-74
2021/04/22 14:09:27;;;;;;;;;;;15.10;45.30;;;;;;4950546;28;19933;-74
2021/04/22 14:11:53;;;;;;;;;;;14.80;47.20;;;;;;4951242;28;20021;-73
2021/04/22 14:14:21;;;;;;;;;;;14.70;47.80;;;;;;4950525;28;19927;-74
2021/04/22 14:16:47;;;;;;;;;;;14.50;46.70;;;;;;4964834;28;19973;-74
2021/04/22 14:19:13;;;;;;;;;;;14.50;47.40;;;;;;4949932;28;19985;-73
2021/04/22 14:21:39;;;;;;;;;;;14.40;46.10;;;;;;4950402;28;20013;-74